createdAt,value
2019-03-21T00:00:03.299Z,101181.17
2019-03-21T00:02:55.874Z,101178.98
2019-03-21T00:05:47.331Z,101177.08
2019-03-21T00:08:41.792Z,101179.56
2019-03-21T00:12:04.874Z,101176.45
2019-03-21T00:15:28.079Z,101182.56
2019-03-21T00:18:19.696Z,101177.61
2019-03-21T00:21:10.564Z,101179.23
2019-03-21T00:24:01.755Z,101181.34
2019-03-21T00:26:53.892Z,101178.63
2019-03-21T00:29:46.038Z,101179.00
2019-03-21T00:32:37.267Z,101174.25
2019-03-21T00:35:29.198Z,101175.16
2019-03-21T00:38:21.106Z,101176.08
2019-03-21T00:41:12.660Z,101170.47
2019-03-21T00:44:04.717Z,101168.34
2019-03-21T00:46:56.532Z,101175.30
2019-03-21T00:49:48.455Z,101169.46
2019-03-21T00:52:40.267Z,101171.43
2019-03-21T00:55:33.684Z,101168.87
2019-03-21T00:58:25.389Z,101168.11
2019-03-21T01:01:17.181Z,101171.64
2019-03-21T01:04:08.916Z,101168.75
2019-03-21T01:06:59.918Z,101171.45
2019-03-21T01:09:52.086Z,101177.16
2019-03-21T01:12:43.330Z,101171.27
2019-03-21T01:15:34.429Z,101169.17
2019-03-21T01:18:25.736Z,101163.66
2019-03-21T01:21:17.207Z,101162.52
2019-03-21T01:24:08.489Z,101163.69
2019-03-21T01:27:00.480Z,101156.30
2019-03-21T01:29:52.445Z,101153.89
2019-03-21T01:32:44.466Z,101153.08
2019-03-21T01:35:37.213Z,101153.48
2019-03-21T01:38:28.860Z,101161.20
2019-03-21T01:41:21.165Z,101154.22
2019-03-21T01:44:12.323Z,101157.02
2019-03-21T01:47:03.857Z,101157.84
2019-03-21T01:49:56.871Z,101153.94
2019-03-21T01:52:49.174Z,101157.47
2019-03-21T01:55:40.843Z,101151.28
2019-03-21T01:58:32.212Z,101150.08
2019-03-21T02:01:24.494Z,101147.58
2019-03-21T02:04:16.147Z,101147.09
2019-03-21T02:07:07.843Z,101147.95
2019-03-21T02:10:00.060Z,101137.77
2019-03-21T02:12:51.464Z,101140.51
2019-03-21T02:15:42.853Z,101146.02
2019-03-21T02:18:33.844Z,101146.41
2019-03-21T02:21:25.053Z,101144.80
2019-03-21T02:24:17.006Z,101140.95
2019-03-21T05:06:33.185Z,101167.00
2019-03-21T05:09:25.171Z,101160.28
2019-03-21T05:12:16.171Z,101163.77
2019-03-21T05:15:11.353Z,101162.95
2019-03-21T05:18:07.293Z,101158.77
2019-03-21T05:20:57.876Z,101159.97
2019-03-21T05:23:49.867Z,101165.89
2019-03-21T05:26:41.485Z,101166.97
2019-03-21T05:29:33.060Z,101170.89
2019-03-21T05:32:23.914Z,101168.20
2019-03-21T05:35:15.674Z,101172.72
2019-03-21T05:38:07.492Z,101177.45
2019-03-21T05:40:58.586Z,101181.58
2019-03-21T05:44:09.553Z,101187.19
2019-03-21T05:47:01.507Z,101179.66
2019-03-21T05:49:52.982Z,101183.02
2019-03-21T05:52:44.745Z,101191.03
2019-03-21T05:55:36.576Z,101186.37
2019-03-21T05:58:28.255Z,101187.62
2019-03-21T06:01:19.697Z,101190.00
2019-03-21T06:04:10.622Z,101188.59
2019-03-21T06:07:40.650Z,101191.52
2019-03-21T06:10:31.360Z,101184.70
2019-03-21T06:13:22.821Z,101187.41
2019-03-21T06:16:13.907Z,101188.36
2019-03-21T06:19:34.964Z,101186.76
2019-03-21T06:23:25.094Z,101191.83
2019-03-21T06:27:15.191Z,101196.78
2019-03-21T06:30:08.319Z,101197.19
2019-03-21T06:33:02.217Z,101196.70
2019-03-21T06:35:53.972Z,101191.12
2019-03-21T06:38:44.979Z,101191.17
2019-03-21T06:41:37.462Z,101186.14
2019-03-21T06:44:29.378Z,101191.53
2019-03-21T06:47:21.295Z,101194.30
2019-03-21T06:50:13.040Z,101193.96
2019-03-21T06:53:04.640Z,101194.95
2019-03-21T06:55:56.219Z,101193.98
2019-03-21T06:58:47.772Z,101197.41
2019-03-21T07:01:40.158Z,101193.80
2019-03-21T07:04:31.705Z,101197.42
2019-03-21T07:07:23.439Z,101195.56
2019-03-21T07:10:14.645Z,101190.74
2019-03-21T07:13:05.703Z,101195.25
2019-03-21T07:15:57.503Z,101192.84
2019-03-21T07:18:49.524Z,101191.01
2019-03-21T07:21:41.570Z,101190.53
2019-03-21T07:24:33.609Z,101191.25
2019-03-21T07:27:24.780Z,101189.59
2019-03-21T07:30:16.096Z,101182.55
2019-03-21T07:33:07.456Z,101188.12
2019-03-21T07:35:58.422Z,101188.92
2019-03-21T07:38:50.257Z,101187.05
2019-03-21T07:41:42.107Z,101189.23
2019-03-21T07:44:33.798Z,101188.62
2019-03-21T07:47:24.884Z,101191.35
2019-03-21T07:50:16.741Z,101188.50
2019-03-21T07:53:08.706Z,101189.95
2019-03-21T07:56:00.579Z,101189.13
2019-03-21T07:58:52.634Z,101190.98
2019-03-21T08:01:43.619Z,101183.14
2019-03-21T08:04:34.747Z,101181.58
2019-03-21T08:07:25.757Z,101178.58
2019-03-21T08:10:16.549Z,101179.50
2019-03-21T08:13:07.565Z,101177.45
2019-03-21T08:16:00.193Z,101173.78
2019-03-21T08:18:51.955Z,101171.81
2019-03-21T08:21:43.282Z,101170.00
2019-03-21T08:24:34.119Z,101162.98
2019-03-21T08:27:25.292Z,101165.13
2019-03-21T08:30:34.381Z,101155.77
2019-03-21T08:33:25.563Z,101157.06
2019-03-21T08:36:18.836Z,101152.47
2019-03-21T08:39:10.451Z,101153.73
2019-03-21T08:42:01.382Z,101157.52
2019-03-21T08:44:52.876Z,101157.07
2019-03-21T08:47:44.425Z,101152.52
2019-03-21T08:50:35.087Z,101151.10
2019-03-21T08:53:26.948Z,101147.56
2019-03-21T08:56:18.338Z,101143.68
2019-03-21T08:59:09.773Z,101137.44
2019-03-21T09:02:00.715Z,101142.45
2019-03-21T09:04:52.597Z,101134.70
2019-03-21T09:07:46.906Z,101129.73
2019-03-21T09:10:38.082Z,101135.86
2019-03-21T09:13:29.985Z,101129.09
2019-03-21T09:16:21.032Z,101126.18
2019-03-21T09:19:12.151Z,101119.67
2019-03-21T09:22:03.917Z,101118.64
2019-03-21T09:24:55.309Z,101121.78
2019-03-21T09:27:46.494Z,101117.44
2019-03-21T09:30:38.169Z,101120.12
2019-03-21T09:33:29.738Z,101114.40
2019-03-21T09:36:21.665Z,101117.88
2019-03-21T09:39:14.028Z,101113.40
2019-03-21T09:42:05.075Z,101115.47
2019-03-21T09:44:57.331Z,101116.31
2019-03-21T09:47:50.903Z,101115.47
2019-03-21T09:50:42.735Z,101107.91
2019-03-21T09:53:34.731Z,101113.43
2019-03-21T09:56:25.860Z,101110.22
2019-03-21T09:59:17.973Z,101109.45
2019-03-21T10:02:10.609Z,101107.81
2019-03-21T10:05:02.387Z,101108.73
2019-03-21T10:07:53.397Z,101112.15
2019-03-21T10:10:44.390Z,101104.09
2019-03-21T10:13:35.650Z,101094.59
2019-03-21T10:16:27.529Z,101093.17
2019-03-21T10:19:18.441Z,101088.56
2019-03-21T10:22:10.038Z,101089.80
2019-03-21T10:25:01.794Z,101085.73
2019-03-21T10:27:53.848Z,101078.74
2019-03-21T10:30:45.184Z,101077.63
2019-03-21T10:33:36.986Z,101082.97
2019-03-21T10:36:29.232Z,101074.33
2019-03-21T10:39:20.163Z,101072.27
2019-03-21T10:42:11.049Z,101057.24
2019-03-21T10:45:02.677Z,101066.14
2019-03-21T10:47:53.845Z,101062.27
2019-03-21T10:50:45.501Z,101062.34
2019-03-21T10:53:36.224Z,101061.80
2019-03-21T10:56:27.806Z,101057.83
2019-03-21T10:59:18.995Z,101058.40
2019-03-21T11:02:10.845Z,101054.27
2019-03-21T11:05:03.107Z,101054.41
2019-03-21T11:07:54.220Z,101057.37
2019-03-21T11:10:47.394Z,101051.99
2019-03-21T11:13:38.382Z,101055.72
2019-03-21T11:16:31.439Z,101058.20
2019-03-21T11:19:23.233Z,101047.59
2019-03-21T11:22:15.081Z,101040.36
2019-03-21T11:25:07.150Z,101039.02
2019-03-21T11:27:58.392Z,101036.72
2019-03-21T11:30:49.665Z,101035.62
2019-03-21T11:33:40.900Z,101023.67
2019-03-21T11:36:38.050Z,101026.25
2019-03-21T11:39:25.056Z,101015.73
2019-03-21T11:42:16.731Z,101008.06
2019-03-21T11:45:08.224Z,101008.88
2019-03-21T11:48:00.143Z,100998.05
2019-03-21T11:50:51.781Z,101004.88
2019-03-21T11:53:42.803Z,100998.98
2019-03-21T11:56:34.900Z,100999.86
2019-03-21T11:59:38.130Z,100997.67
2019-03-21T12:02:27.216Z,100989.39
2019-03-21T12:05:11.909Z,100987.91
2019-03-21T12:08:03.954Z,100986.66
2019-03-21T12:10:54.902Z,100983.23
2019-03-21T12:13:46.850Z,100978.08
2019-03-21T12:16:38.482Z,100978.08
2019-03-21T12:19:29.864Z,100970.70
2019-03-21T12:22:30.033Z,100973.73
2019-03-21T12:25:14.231Z,100967.68
2019-03-21T12:28:05.304Z,100965.80
2019-03-21T12:30:57.147Z,100961.85
2019-03-21T12:33:48.996Z,100954.22
2019-03-21T12:36:40.917Z,100954.32
2019-03-21T12:39:32.447Z,100949.48
2019-03-21T12:42:23.577Z,100948.68
2019-03-21T12:45:15.516Z,100941.42
2019-03-21T12:48:07.730Z,100938.52
2019-03-21T12:50:58.462Z,100936.52
2019-03-21T12:53:50.148Z,100935.59
2019-03-21T12:56:41.952Z,100936.30
2019-03-21T12:59:33.896Z,100934.12
2019-03-21T13:02:32.390Z,100929.88
2019-03-21T13:05:27.673Z,100923.34
2019-03-21T13:08:18.772Z,100917.50
2019-03-21T13:11:10.386Z,100918.67
2019-03-21T13:14:01.796Z,100913.43
2019-03-21T13:16:52.907Z,100913.43
2019-03-21T13:19:44.786Z,100900.34
2019-03-21T13:22:35.954Z,100911.95
2019-03-21T13:25:27.646Z,100900.03
2019-03-21T13:28:19.551Z,100897.34
2019-03-21T13:31:10.933Z,100900.02
2019-03-21T13:34:01.973Z,100893.19
2019-03-21T13:36:53.355Z,100895.45
2019-03-21T13:39:44.104Z,100889.88
2019-03-21T13:42:36.106Z,100883.70
2019-03-21T13:45:28.096Z,100880.80
2019-03-21T13:48:22.334Z,100875.98
2019-03-21T13:51:14.572Z,100879.16
2019-03-21T13:54:08.584Z,100876.58
2019-03-21T13:56:58.857Z,100867.89
2019-03-21T13:59:50.369Z,100858.34
2019-03-21T14:02:41.348Z,100860.91
2019-03-21T14:05:33.448Z,100860.27
2019-03-21T14:08:25.463Z,100855.38
2019-03-21T14:11:16.322Z,100849.91
2019-03-21T14:14:08.381Z,100847.22
2019-03-21T14:17:00.210Z,100849.52
2019-03-21T14:19:52.410Z,100845.16
2019-03-21T14:22:45.049Z,100841.22
2019-03-21T14:25:36.386Z,100836.92
2019-03-21T14:28:27.990Z,100830.37
2019-03-21T14:31:19.002Z,100832.69
2019-03-21T14:34:10.241Z,100829.59
2019-03-21T14:37:01.474Z,100826.81
2019-03-21T14:39:53.040Z,100824.66
2019-03-21T14:42:45.111Z,100820.61
2019-03-21T14:45:36.861Z,100816.92
2019-03-21T14:48:28.754Z,100818.30
2019-03-21T14:51:19.863Z,100818.19
2019-03-21T14:54:10.794Z,100820.53
2019-03-21T14:57:01.935Z,100822.06
2019-03-21T14:59:53.830Z,100826.64
2019-03-21T15:02:45.241Z,100821.85
2019-03-21T15:05:36.445Z,100814.64
2019-03-21T15:08:28.415Z,100816.35
2019-03-21T15:11:19.915Z,100814.37
2019-03-21T15:14:10.628Z,100813.81
2019-03-21T15:17:02.540Z,100811.42
2019-03-21T15:19:53.206Z,100813.29
2019-03-21T15:22:44.806Z,100818.53
2019-03-21T15:25:35.559Z,100813.06
2019-03-21T15:28:27.354Z,100821.33
2019-03-21T15:31:19.170Z,100807.96
2019-03-21T15:34:10.507Z,100811.66
2019-03-21T15:37:01.568Z,100809.41
2019-03-21T15:39:53.350Z,100814.28
2019-03-21T15:42:44.415Z,100815.26
2019-03-21T15:45:35.605Z,100815.89
2019-03-21T15:48:26.605Z,100816.52
2019-03-21T15:51:17.569Z,100815.66
2019-03-21T15:54:09.457Z,100814.20
2019-03-21T15:57:02.618Z,100812.12
2019-03-21T15:59:54.423Z,100812.20
2019-03-21T16:02:46.427Z,100810.16
2019-03-21T16:05:41.770Z,100801.11
2019-03-21T16:08:33.083Z,100795.91
2019-03-21T16:11:26.805Z,100791.02
2019-03-21T16:14:19.084Z,100796.89
2019-03-21T16:17:11.270Z,100800.53
2019-03-21T16:20:03.740Z,100793.72
2019-03-21T16:22:57.872Z,100797.97
2019-03-21T16:25:50.013Z,100796.37
2019-03-21T16:28:42.777Z,100797.59
2019-03-21T16:31:35.285Z,100796.55
2019-03-21T16:34:27.113Z,100798.90
2019-03-21T16:37:18.813Z,100803.70
2019-03-21T16:40:13.101Z,100800.83
2019-03-21T16:43:05.795Z,100802.30
2019-03-21T16:45:59.111Z,100799.16
2019-03-21T16:48:50.183Z,100804.30
2019-03-21T16:51:41.742Z,100800.86
2019-03-21T16:54:34.827Z,100800.57
2019-03-21T16:57:29.690Z,100805.95
2019-03-21T17:00:21.909Z,100804.53
2019-03-21T17:03:13.780Z,100808.63
2019-03-21T17:06:05.890Z,100811.81
2019-03-21T17:08:57.706Z,100813.34
2019-03-21T17:11:50.135Z,100814.81
2019-03-21T17:14:42.403Z,100812.79
2019-03-21T17:17:33.969Z,100817.63
2019-03-21T17:20:25.891Z,100821.42
2019-03-21T17:23:18.827Z,100818.33
2019-03-21T17:26:12.095Z,100821.00
2019-03-21T17:29:04.562Z,100825.75
2019-03-21T17:31:56.238Z,100826.67
2019-03-21T17:34:48.555Z,100832.20
2019-03-21T17:37:41.045Z,100830.61
2019-03-21T17:40:32.058Z,100831.55
2019-03-21T17:43:24.664Z,100833.53
2019-03-21T17:46:16.129Z,100839.34
2019-03-21T17:49:07.246Z,100837.25
2019-03-21T17:51:58.902Z,100834.01
2019-03-21T17:54:50.163Z,100835.30
2019-03-21T17:57:44.749Z,100838.98
2019-03-21T18:00:36.387Z,100839.47
2019-03-21T18:03:28.548Z,100844.28
2019-03-21T18:06:19.403Z,100845.44
2019-03-21T18:09:10.538Z,100846.56
2019-03-21T18:12:02.552Z,100845.92
2019-03-21T18:14:53.597Z,100846.53
2019-03-21T18:17:45.409Z,100848.05
2019-03-21T18:20:37.038Z,100850.64
2019-03-21T18:23:28.182Z,100853.23
2019-03-21T18:26:19.087Z,100856.39
2019-03-21T18:29:10.106Z,100856.27
2019-03-21T18:32:01.774Z,100857.24
2019-03-21T18:34:53.831Z,100858.55
2019-03-21T18:37:45.443Z,100862.21
2019-03-21T18:40:37.592Z,100862.83
2019-03-21T18:43:29.331Z,100859.69
2019-03-21T18:46:21.075Z,100865.31
2019-03-21T18:49:12.661Z,100872.86
2019-03-21T18:52:04.205Z,100879.28
2019-03-21T18:55:05.781Z,100886.41
2019-03-21T18:57:48.781Z,100884.08
2019-03-21T19:00:39.936Z,100884.62
2019-03-21T19:03:31.439Z,100883.34
2019-03-21T19:06:23.084Z,100877.59
2019-03-21T19:09:13.700Z,100876.23
2019-03-21T19:12:04.972Z,100878.52
2019-03-21T19:14:56.475Z,100882.63
2019-03-21T19:17:47.842Z,100887.33
2019-03-21T19:20:38.889Z,100893.39
2019-03-21T19:23:30.811Z,100888.30
2019-03-21T19:26:22.716Z,100891.55
2019-03-21T19:29:15.172Z,100889.88
2019-03-21T19:32:06.834Z,100893.00
2019-03-21T19:34:58.478Z,100891.84
2019-03-21T19:37:50.244Z,100886.11
2019-03-21T19:40:41.292Z,100889.69
2019-03-21T19:43:32.408Z,100891.21
2019-03-21T19:46:23.760Z,100893.73
2019-03-21T19:49:14.699Z,100896.94
2019-03-21T19:52:05.667Z,100890.76
2019-03-21T19:54:57.469Z,100891.47
2019-03-21T19:57:48.355Z,100892.74
2019-03-21T20:00:39.274Z,100891.71
2019-03-21T20:03:30.957Z,100890.09
2019-03-21T20:06:21.921Z,100890.31
2019-03-21T20:09:13.238Z,100891.59
2019-03-21T20:12:04.938Z,100894.39
2019-03-21T20:14:56.511Z,100895.85
2019-03-21T20:17:48.092Z,100893.65
2019-03-21T20:20:39.996Z,100899.45
2019-03-21T20:23:31.235Z,100893.77
2019-03-21T20:26:22.884Z,100891.89
2019-03-21T20:29:13.972Z,100888.52
2019-03-21T20:32:05.807Z,100892.91
2019-03-21T20:34:56.935Z,100888.47
2019-03-21T20:37:47.607Z,100892.85
2019-03-21T20:40:39.272Z,100896.94
2019-03-21T20:43:30.375Z,100898.40
2019-03-21T20:46:22.282Z,100895.53
2019-03-21T20:49:13.816Z,100894.94
2019-03-21T20:52:05.731Z,100892.46
2019-03-21T20:54:58.648Z,100895.48
2019-03-21T20:57:49.685Z,100897.83
2019-03-21T21:00:40.655Z,100902.17
2019-03-21T21:03:31.491Z,100901.79
2019-03-21T21:06:23.276Z,100892.61
2019-03-21T21:09:14.465Z,100895.13
2019-03-21T21:12:06.270Z,100893.04
2019-03-21T21:14:57.937Z,100889.42
2019-03-21T21:17:49.929Z,100886.45
2019-03-21T21:20:40.987Z,100886.67
2019-03-21T21:23:32.663Z,100888.87
2019-03-21T21:26:23.698Z,100887.10
2019-03-21T21:29:14.914Z,100887.26
2019-03-21T21:32:06.166Z,100894.64
2019-03-21T21:34:57.752Z,100890.97
2019-03-21T21:37:49.368Z,100889.81
2019-03-21T21:40:40.416Z,100890.25
2019-03-21T21:43:31.399Z,100884.83
2019-03-21T21:46:23.847Z,100891.64
2019-03-21T21:49:15.698Z,100887.55
2019-03-21T21:52:07.355Z,100890.55
2019-03-21T21:54:58.232Z,100886.56
2019-03-21T21:57:49.913Z,100884.61
2019-03-21T22:00:40.657Z,100884.02
2019-03-21T22:03:33.134Z,100884.95
2019-03-21T22:06:23.845Z,100880.03
2019-03-21T22:09:15.658Z,100881.95
2019-03-21T22:12:06.369Z,100884.62
2019-03-21T22:14:57.135Z,100882.14
2019-03-21T22:17:48.736Z,100884.05
2019-03-21T22:20:39.990Z,100886.42
2019-03-21T22:23:30.634Z,100883.42
2019-03-21T22:26:29.534Z,100886.97
2019-03-21T22:29:15.315Z,100876.69
2019-03-21T22:32:06.647Z,100881.92
2019-03-21T22:34:58.517Z,100883.25
2019-03-21T22:37:50.031Z,100884.53
2019-03-21T22:40:40.928Z,100881.97
2019-03-21T22:43:32.398Z,100885.95
2019-03-21T22:46:23.942Z,100885.19
2019-03-21T22:49:15.198Z,100880.89
2019-03-21T22:52:06.820Z,100882.50
2019-03-21T22:54:57.651Z,100883.70
2019-03-21T22:57:49.369Z,100876.06
2019-03-21T23:00:44.559Z,100880.74
2019-03-21T23:03:36.781Z,100879.84
2019-03-21T23:06:28.418Z,100871.44
2019-03-21T23:09:19.097Z,100870.45
2019-03-21T23:12:10.057Z,100865.60
2019-03-21T23:15:02.083Z,100866.05
2019-03-21T23:17:53.381Z,100865.61
2019-03-21T23:20:45.013Z,100860.97
2019-03-21T23:23:36.102Z,100859.83
2019-03-21T23:26:28.156Z,100855.84
2019-03-21T23:29:19.712Z,100855.25
2019-03-21T23:32:11.386Z,100853.79
2019-03-21T23:35:03.211Z,100852.36
2019-03-21T23:37:54.437Z,100850.24
2019-03-21T23:40:45.457Z,100851.44
2019-03-21T23:43:37.459Z,100848.26
2019-03-21T23:46:29.015Z,100844.78
2019-03-21T23:49:21.930Z,100846.99
2019-03-21T23:52:13.487Z,100845.38
2019-03-21T23:55:04.644Z,100847.00
2019-03-21T23:57:55.518Z,100847.88
